Terminal Aerodrome Forecast
Issued by NWS

Home | Current Version | Previous Version | Graphics & Text | Print | Product List | Glossary On
Versions: 1 2 3 4 5 6 7 8 9 10 11 12 13 14 15
000
FTUS43 KOAX 230700 AAA
TAFCDR
TAF AMD
KCDR 230759Z 2308/2406 17022G32KT P6SM BKN250
     FM231100 21013KT P6SM BKN250
     FM231400 29020G30KT P6SM BKN250
     FM240000 31015G23KT P6SM SCT250=

USA.gov is the U.S. government's official web portal to all federal, state and local government web resources and services.